createdAt,value
2023-04-25T00:00:08.502Z,1001.63
2023-04-25T00:01:08.497Z,1001.65
2023-04-25T00:02:08.533Z,1001.63
2023-04-25T00:03:08.570Z,1001.64
2023-04-25T00:04:08.664Z,1001.63
2023-04-25T00:05:08.558Z,1001.67
2023-04-25T00:06:08.443Z,1001.71
2023-04-25T00:07:08.437Z,1001.67
2023-04-25T00:08:08.432Z,1001.68
2023-04-25T00:09:08.441Z,1001.66
2023-04-25T00:10:08.404Z,1001.65
2023-04-25T00:11:08.407Z,1001.66
2023-04-25T00:12:08.395Z,1001.64
2023-04-25T00:13:08.384Z,1001.61
2023-04-25T00:14:08.377Z,1001.61
2023-04-25T00:15:08.381Z,1001.60
2023-04-25T00:16:08.382Z,1001.58
2023-04-25T00:17:08.349Z,1001.56
2023-04-25T00:18:08.367Z,1001.59
2023-04-25T00:19:08.599Z,1001.63
2023-04-25T00:20:08.322Z,1001.61
2023-04-25T00:21:08.314Z,1001.63
2023-04-25T00:22:08.312Z,1001.66
2023-04-25T00:23:08.315Z,1001.61
2023-04-25T00:24:08.315Z,1001.61
2023-04-25T00:25:08.289Z,1001.63
2023-04-25T00:26:08.278Z,1001.66
2023-04-25T00:27:08.266Z,1001.60
2023-04-25T00:28:08.259Z,1001.61
2023-04-25T00:29:08.249Z,1001.66
2023-04-25T00:30:08.240Z,1001.65
2023-04-25T00:31:08.301Z,1001.65
2023-04-25T00:32:08.253Z,1001.61
2023-04-25T00:33:08.237Z,1001.62
2023-04-25T00:34:08.202Z,1001.58
2023-04-25T00:35:08.204Z,1001.62
2023-04-25T00:36:08.189Z,1001.57
2023-04-25T00:37:08.183Z,1001.59
2023-04-25T00:38:08.177Z,1001.61
2023-04-25T00:39:08.156Z,1001.57
2023-04-25T00:40:08.156Z,1001.59
2023-04-25T00:41:08.141Z,1001.53
2023-04-25T00:42:08.136Z,1001.53
2023-04-25T00:43:08.121Z,1001.57
2023-04-25T00:44:08.128Z,1001.56
2023-04-25T00:45:08.110Z,1001.51
2023-04-25T00:46:08.093Z,1001.54
2023-04-25T00:47:08.164Z,1001.52
2023-04-25T00:48:08.315Z,1001.52
2023-04-25T00:49:08.088Z,1001.53
2023-04-25T00:50:08.068Z,1001.53
2023-04-25T00:51:08.050Z,1001.55
2023-04-25T00:52:08.042Z,1001.54
2023-04-25T00:53:08.041Z,1001.53
2023-04-25T00:54:08.065Z,1001.51
2023-04-25T00:55:08.016Z,1001.50
2023-04-25T00:56:08.023Z,1001.51
2023-04-25T00:57:08.020Z,1001.48
2023-04-25T00:58:08.004Z,1001.53
2023-04-25T00:59:07.981Z,1001.50
2023-04-25T01:00:07.972Z,1001.51
2023-04-25T01:01:08.051Z,1001.47
2023-04-25T01:02:07.974Z,1001.46
2023-04-25T01:03:08.183Z,1001.49
2023-04-25T01:04:08.091Z,1001.46
2023-04-25T01:05:07.928Z,1001.48
2023-04-25T01:06:07.918Z,1001.43
2023-04-25T01:07:07.921Z,1001.42
2023-04-25T01:08:07.907Z,1001.45
2023-04-25T01:09:07.902Z,1001.41
2023-04-25T01:10:07.883Z,1001.45
2023-04-25T01:11:07.928Z,1001.48
2023-04-25T01:12:07.865Z,1001.45
2023-04-25T01:13:07.861Z,1001.44
2023-04-25T01:14:07.847Z,1001.45
2023-04-25T01:15:07.838Z,1001.40
2023-04-25T01:16:07.881Z,1001.44
2023-04-25T01:17:07.938Z,1001.45
2023-04-25T01:18:07.852Z,1001.44
2023-04-25T01:19:07.818Z,1001.49
2023-04-25T01:20:07.795Z,1001.42
2023-04-25T01:21:07.798Z,1001.42
2023-04-25T01:22:07.775Z,1001.40
2023-04-25T01:23:07.768Z,1001.39
2023-04-25T01:24:07.755Z,1001.41
2023-04-25T01:25:07.750Z,1001.36
2023-04-25T01:26:07.752Z,1001.40
2023-04-25T01:27:07.731Z,1001.38
2023-04-25T01:28:07.729Z,1001.39
2023-04-25T01:29:07.712Z,1001.38
2023-04-25T01:30:07.724Z,1001.33
2023-04-25T01:31:07.698Z,1001.35
2023-04-25T01:32:07.733Z,1001.35
2023-04-25T01:33:07.747Z,1001.35
2023-04-25T01:34:07.673Z,1001.35
2023-04-25T01:35:07.661Z,1001.34
2023-04-25T01:36:07.708Z,1001.33
2023-04-25T01:37:07.648Z,1001.36
2023-04-25T01:38:07.635Z,1001.34
2023-04-25T01:39:07.625Z,1001.34
2023-04-25T01:40:07.626Z,1001.41
2023-04-25T01:41:07.609Z,1001.40
2023-04-25T01:42:07.655Z,1001.37
2023-04-25T01:43:07.593Z,1001.37
2023-04-25T01:44:07.581Z,1001.38
2023-04-25T01:45:07.577Z,1001.35
2023-04-25T01:46:07.595Z,1001.36
2023-04-25T01:47:07.647Z,1001.36
2023-04-25T01:48:07.577Z,1001.38
2023-04-25T01:49:07.539Z,1001.36
2023-04-25T01:50:07.531Z,1001.34
2023-04-25T01:51:07.533Z,1001.34
2023-04-25T01:52:07.508Z,1001.31
2023-04-25T01:53:07.503Z,1001.35
2023-04-25T01:54:07.492Z,1001.36
2023-04-25T01:55:07.484Z,1001.36
2023-04-25T01:56:07.481Z,1001.36
2023-04-25T01:57:07.471Z,1001.36
2023-04-25T01:58:07.455Z,1001.40
2023-04-25T01:59:07.448Z,1001.35
2023-04-25T02:00:07.437Z,1001.38
2023-04-25T02:01:07.438Z,1001.35
2023-04-25T02:02:07.419Z,1001.37
2023-04-25T02:03:07.534Z,1001.37
2023-04-25T02:04:07.718Z,1001.35
2023-04-25T02:05:07.393Z,1001.36
2023-04-25T02:06:07.393Z,1001.34
2023-04-25T02:07:07.393Z,1001.38
2023-04-25T02:08:07.382Z,1001.38
2023-04-25T02:09:07.360Z,1001.35
2023-04-25T02:10:07.359Z,1001.35
2023-04-25T02:11:07.345Z,1001.33
2023-04-25T02:12:07.351Z,1001.31
2023-04-25T02:13:07.354Z,1001.30
2023-04-25T02:14:07.338Z,1001.31
2023-04-25T02:15:07.332Z,1001.33
2023-04-25T02:16:07.369Z,1001.31
2023-04-25T02:17:07.336Z,1001.34
2023-04-25T02:18:07.414Z,1001.37
2023-04-25T02:19:07.270Z,1001.32
2023-04-25T02:20:07.264Z,1001.32
2023-04-25T02:21:07.267Z,1001.33
2023-04-25T02:22:07.244Z,1001.29
2023-04-25T02:23:07.241Z,1001.28
2023-04-25T02:24:07.225Z,1001.29
2023-04-25T02:25:07.216Z,1001.30
2023-04-25T02:26:07.212Z,1001.23
2023-04-25T02:27:07.206Z,1001.31
2023-04-25T02:28:07.192Z,1001.28
2023-04-25T02:29:07.181Z,1001.29
2023-04-25T02:30:07.171Z,1001.24
2023-04-25T02:31:07.175Z,1001.26
2023-04-25T02:32:07.156Z,1001.28
2023-04-25T02:33:07.167Z,1001.29
2023-04-25T02:34:07.134Z,1001.28
2023-04-25T02:35:07.137Z,1001.30
2023-04-25T02:36:07.117Z,1001.33
2023-04-25T02:37:07.119Z,1001.36
2023-04-25T02:38:07.099Z,1001.34
2023-04-25T02:39:07.091Z,1001.35
2023-04-25T02:40:07.113Z,1001.35
2023-04-25T02:41:07.076Z,1001.35
2023-04-25T02:42:07.119Z,1001.33
2023-04-25T02:43:07.056Z,1001.33
2023-04-25T02:44:07.061Z,1001.32
2023-04-25T02:45:07.050Z,1001.31
2023-04-25T02:46:07.057Z,1001.27
2023-04-25T02:47:07.052Z,1001.33
2023-04-25T02:48:07.034Z,1001.28
2023-04-25T02:49:06.999Z,1001.30
2023-04-25T02:50:06.993Z,1001.30
2023-04-25T02:51:07.038Z,1001.37
2023-04-25T02:52:07.075Z,1001.32
2023-04-25T02:53:07.006Z,1001.25
2023-04-25T02:54:06.961Z,1001.30
2023-04-25T02:55:06.944Z,1001.25
2023-04-25T02:56:06.940Z,1001.28
2023-04-25T02:57:06.933Z,1001.30
2023-04-25T02:58:06.916Z,1001.29
2023-04-25T02:59:06.916Z,1001.27
2023-04-25T03:00:06.925Z,1001.30
2023-04-25T03:01:06.925Z,1001.31
2023-04-25T03:02:06.884Z,1001.29
2023-04-25T03:03:06.942Z,1001.32
2023-04-25T03:04:06.890Z,1001.27
2023-04-25T03:05:06.908Z,1001.27
2023-04-25T03:06:06.845Z,1001.30
2023-04-25T03:07:06.836Z,1001.29
2023-04-25T03:08:06.847Z,1001.31
2023-04-25T03:09:06.817Z,1001.29
2023-04-25T03:10:06.807Z,1001.32
2023-04-25T03:11:06.800Z,1001.33
2023-04-25T03:12:06.792Z,1001.30
2023-04-25T03:13:06.786Z,1001.37
2023-04-25T03:14:06.778Z,1001.28
2023-04-25T03:15:06.761Z,1001.27
2023-04-25T03:16:06.795Z,1001.28
2023-04-25T03:17:06.749Z,1001.28
2023-04-25T03:18:06.833Z,1001.28
2023-04-25T03:19:06.726Z,1001.30
2023-04-25T03:20:06.719Z,1001.31
2023-04-25T03:21:06.712Z,1001.30
2023-04-25T03:22:06.711Z,1001.32
2023-04-25T03:23:06.686Z,1001.34
2023-04-25T03:24:06.690Z,1001.35
2023-04-25T03:25:06.672Z,1001.36
2023-04-25T03:26:06.664Z,1001.38
2023-04-25T03:27:06.666Z,1001.36
2023-04-25T03:28:06.654Z,1001.34
2023-04-25T03:29:06.643Z,1001.40
2023-04-25T03:30:06.634Z,1001.35
2023-04-25T03:31:06.621Z,1001.34
2023-04-25T03:32:06.664Z,1001.36
2023-04-25T03:33:06.636Z,1001.36
2023-04-25T03:34:06.597Z,1001.40
2023-04-25T03:35:06.589Z,1001.38
2023-04-25T03:36:06.595Z,1001.37
2023-04-25T03:37:06.569Z,1001.36
2023-04-25T03:38:06.560Z,1001.39
2023-04-25T03:39:06.555Z,1001.38
2023-04-25T03:40:06.545Z,1001.40
2023-04-25T03:41:06.619Z,1001.37
2023-04-25T03:42:06.517Z,1001.42
2023-04-25T03:43:06.518Z,1001.39
2023-04-25T03:44:06.503Z,1001.40
2023-04-25T03:45:06.492Z,1001.40
2023-04-25T03:46:06.522Z,1001.37
2023-04-25T03:47:06.479Z,1001.38
2023-04-25T03:48:06.512Z,1001.42
2023-04-25T03:49:06.458Z,1001.40
2023-04-25T03:50:06.453Z,1001.40
2023-04-25T03:51:06.517Z,1001.43
2023-04-25T03:52:06.434Z,1001.39
2023-04-25T03:53:06.424Z,1001.46
2023-04-25T03:54:06.420Z,1001.47
2023-04-25T03:55:06.403Z,1001.44
2023-04-25T03:56:06.420Z,1001.47
2023-04-25T03:57:06.406Z,1001.45
2023-04-25T03:58:06.386Z,1001.41
2023-04-25T03:59:06.369Z,1001.46
2023-04-25T04:00:06.361Z,1001.46
2023-04-25T04:01:06.354Z,1001.47
2023-04-25T04:02:06.396Z,1001.50
2023-04-25T04:03:06.474Z,1001.47
2023-04-25T04:04:06.607Z,1001.46
2023-04-25T04:05:06.441Z,1001.49
2023-04-25T04:06:06.299Z,1001.56
2023-04-25T04:07:06.290Z,1001.56
2023-04-25T04:08:06.289Z,1001.57
2023-04-25T04:09:06.282Z,1001.54
2023-04-25T04:10:06.275Z,1001.59
2023-04-25T04:11:06.262Z,1001.58
2023-04-25T04:12:06.256Z,1001.57
2023-04-25T04:13:06.245Z,1001.49
2023-04-25T04:14:06.230Z,1001.61
2023-04-25T04:15:06.221Z,1001.57
2023-04-25T04:16:06.242Z,1001.60
2023-04-25T04:17:06.204Z,1001.62
2023-04-25T04:18:06.211Z,1001.63
2023-04-25T04:19:06.186Z,1001.64
2023-04-25T04:20:06.176Z,1001.66
2023-04-25T04:21:06.200Z,1001.67
2023-04-25T04:22:06.178Z,1001.70
2023-04-25T04:23:06.150Z,1001.71
2023-04-25T04:24:06.144Z,1001.73
2023-04-25T04:25:06.131Z,1001.75
2023-04-25T04:26:06.132Z,1001.76
2023-04-25T04:27:06.116Z,1001.76
2023-04-25T04:28:06.105Z,1001.73
2023-04-25T04:29:06.096Z,1001.75
2023-04-25T04:30:06.093Z,1001.75
2023-04-25T04:31:06.147Z,1001.76
2023-04-25T04:32:06.064Z,1001.77
2023-04-25T04:33:06.136Z,1001.75
2023-04-25T04:34:06.052Z,1001.77
2023-04-25T04:35:06.042Z,1001.80
2023-04-25T04:36:06.034Z,1001.80
2023-04-25T04:37:06.023Z,1001.81
2023-04-25T04:38:06.013Z,1001.82
2023-04-25T04:39:06.005Z,1001.83
2023-04-25T04:40:06.008Z,1001.82
2023-04-25T04:41:05.985Z,1001.82
2023-04-25T04:42:05.982Z,1001.81
2023-04-25T04:43:05.982Z,1001.84
2023-04-25T04:44:07.136Z,1001.77
2023-04-25T04:45:05.953Z,1001.82
2023-04-25T04:46:05.957Z,1001.87
2023-04-25T04:47:05.999Z,1001.85
2023-04-25T04:48:05.953Z,1001.82
2023-04-25T04:49:05.914Z,1001.89
2023-04-25T04:50:05.910Z,1001.89
2023-04-25T04:51:05.897Z,1001.86
2023-04-25T04:52:05.929Z,1001.87
2023-04-25T04:53:05.881Z,1001.90
2023-04-25T04:54:05.882Z,1001.92
2023-04-25T04:55:05.860Z,1001.88
2023-04-25T04:56:05.848Z,1001.87
2023-04-25T04:57:05.858Z,1001.83
2023-04-25T04:58:05.841Z,1001.86
2023-04-25T04:59:05.820Z,1001.84
2023-04-25T05:00:05.816Z,1001.89
2023-04-25T05:01:05.835Z,1001.85
2023-04-25T05:02:05.793Z,1001.87
2023-04-25T05:03:05.911Z,1001.92
2023-04-25T05:04:05.915Z,1001.93
2023-04-25T05:05:05.766Z,1001.91
2023-04-25T05:06:05.757Z,1001.88
2023-04-25T05:07:05.774Z,1001.88
2023-04-25T05:08:05.743Z,1001.93
2023-04-25T05:09:05.734Z,1001.92
2023-04-25T05:10:05.720Z,1001.93
2023-04-25T05:11:05.714Z,1001.89
2023-04-25T05:12:05.715Z,1001.95
2023-04-25T05:13:05.697Z,1001.93
2023-04-25T05:14:05.687Z,1001.94
2023-04-25T05:15:05.688Z,1001.89
2023-04-25T05:16:05.697Z,1001.92
2023-04-25T05:17:05.688Z,1001.97
2023-04-25T05:18:05.681Z,1001.95
2023-04-25T05:19:05.652Z,1001.89
2023-04-25T05:20:05.630Z,1001.93
2023-04-25T05:21:05.630Z,1001.95
2023-04-25T05:22:05.614Z,1001.93
2023-04-25T05:23:05.608Z,1001.95
2023-04-25T05:24:05.596Z,1001.97
2023-04-25T05:25:05.663Z,1001.95
2023-04-25T05:26:05.574Z,1001.98
2023-04-25T05:27:05.581Z,1002.01
2023-04-25T05:28:05.571Z,1001.97
2023-04-25T05:29:05.552Z,1001.97
2023-04-25T05:30:05.540Z,1001.95
2023-04-25T05:31:05.540Z,1001.97
2023-04-25T05:32:05.609Z,1001.94
2023-04-25T05:33:05.585Z,1001.93
2023-04-25T05:34:05.511Z,1001.95
2023-04-25T05:35:05.536Z,1001.96
2023-04-25T05:36:05.516Z,1001.99
2023-04-25T05:37:05.485Z,1002.00
2023-04-25T05:38:05.487Z,1001.98
2023-04-25T05:39:05.457Z,1001.98
2023-04-25T05:40:05.521Z,1002.01
2023-04-25T05:41:05.441Z,1001.98
2023-04-25T05:42:05.431Z,1002.01
2023-04-25T05:43:05.424Z,1002.01
2023-04-25T05:44:05.414Z,1002.04
2023-04-25T05:45:05.409Z,1002.08
2023-04-25T05:46:05.425Z,1002.13
2023-04-25T05:47:05.395Z,1002.05
2023-04-25T05:48:05.446Z,1002.10
2023-04-25T05:49:05.370Z,1002.10
2023-04-25T05:50:05.362Z,1002.10
2023-04-25T05:51:05.353Z,1002.11
2023-04-25T05:52:05.336Z,1002.07
2023-04-25T05:53:05.334Z,1002.12
2023-04-25T05:54:05.320Z,1002.12
2023-04-25T05:55:05.322Z,1002.10
2023-04-25T05:56:05.306Z,1002.12
2023-04-25T05:57:05.297Z,1002.18
2023-04-25T05:58:05.288Z,1002.18
2023-04-25T05:59:05.276Z,1002.17
2023-04-25T06:00:05.272Z,1002.22
2023-04-25T06:01:05.261Z,1002.20
2023-04-25T06:02:05.269Z,1002.22
2023-04-25T06:03:05.327Z,1002.24
2023-04-25T06:04:05.568Z,1002.21
2023-04-25T06:05:05.312Z,1002.27
2023-04-25T06:06:05.240Z,1002.24
2023-04-25T06:07:05.205Z,1002.26
2023-04-25T06:08:05.203Z,1002.29
2023-04-25T06:09:05.190Z,1002.27
2023-04-25T06:10:05.186Z,1002.29
2023-04-25T06:11:05.182Z,1002.32
2023-04-25T06:12:05.166Z,1002.27
2023-04-25T06:13:05.183Z,1002.32
2023-04-25T06:14:05.152Z,1002.34
2023-04-25T06:15:13.217Z,1002.26
2023-04-25T06:16:05.169Z,1002.28
2023-04-25T06:17:05.117Z,1002.32
2023-04-25T06:18:05.160Z,1002.33
2023-04-25T06:19:05.105Z,1002.36
2023-04-25T06:20:06.922Z,1002.36
2023-04-25T06:21:05.079Z,1002.36
2023-04-25T06:22:05.075Z,1002.38
2023-04-25T06:23:05.072Z,1002.33
2023-04-25T06:24:05.077Z,1002.38
2023-04-25T06:25:05.073Z,1002.41
2023-04-25T06:26:05.065Z,1002.41
2023-04-25T06:27:05.107Z,1002.40
2023-04-25T06:28:05.074Z,1002.47
2023-04-25T06:29:05.080Z,1002.48
2023-04-25T06:30:05.001Z,1002.43
2023-04-25T06:31:05.031Z,1002.44
2023-04-25T06:32:04.985Z,1002.45
2023-04-25T06:33:05.005Z,1002.43
2023-04-25T06:34:05.007Z,1002.37
2023-04-25T06:35:04.966Z,1002.39
2023-04-25T06:36:04.958Z,1002.38
2023-04-25T06:37:04.946Z,1002.41
2023-04-25T06:38:04.934Z,1002.39
2023-04-25T06:39:04.925Z,1002.39
2023-04-25T06:40:04.961Z,1002.41
2023-04-25T06:41:04.910Z,1002.43
2023-04-25T06:42:04.900Z,1002.39
2023-04-25T06:43:04.887Z,1002.39
2023-04-25T06:44:04.880Z,1002.36
2023-04-25T06:45:04.928Z,1002.37
2023-04-25T06:46:04.863Z,1002.35
2023-04-25T06:47:04.866Z,1002.43
2023-04-25T06:48:04.899Z,1002.38
2023-04-25T06:49:04.844Z,1002.38
2023-04-25T06:50:04.828Z,1002.50
2023-04-25T06:51:04.825Z,1002.48
2023-04-25T06:52:04.812Z,1002.45
2023-04-25T06:53:04.801Z,1002.48
2023-04-25T06:54:04.794Z,1002.45
2023-04-25T06:55:04.784Z,1002.46
2023-04-25T06:56:04.777Z,1002.45
2023-04-25T06:57:04.765Z,1002.41
2023-04-25T06:58:04.761Z,1002.49
2023-04-25T06:59:04.776Z,1002.54
2023-04-25T07:00:04.739Z,1002.52
2023-04-25T07:01:04.779Z,1002.51
2023-04-25T07:02:04.733Z,1002.54
2023-04-25T07:03:04.802Z,1002.51
2023-04-25T07:04:04.840Z,1002.53
2023-04-25T07:05:04.693Z,1002.56
2023-04-25T07:06:04.686Z,1002.57
2023-04-25T07:07:04.680Z,1002.58
2023-04-25T07:08:04.668Z,1002.54
2023-04-25T07:09:04.660Z,1002.54
2023-04-25T07:10:04.650Z,1002.58
2023-04-25T07:11:04.650Z,1002.58
2023-04-25T07:12:04.647Z,1002.61
2023-04-25T07:13:04.624Z,1002.60
2023-04-25T07:14:04.621Z,1002.65
2023-04-25T07:15:04.607Z,1002.61
2023-04-25T07:16:04.614Z,1002.66
2023-04-25T07:17:04.591Z,1002.66
2023-04-25T07:18:04.641Z,1002.63
2023-04-25T07:19:04.569Z,1002.71
2023-04-25T07:20:04.566Z,1002.71
2023-04-25T07:21:04.564Z,1002.74
2023-04-25T07:22:04.544Z,1002.74
2023-04-25T07:23:04.539Z,1002.75
2023-04-25T07:24:04.526Z,1002.74
2023-04-25T07:25:04.520Z,1002.70
2023-04-25T07:26:04.514Z,1002.72
2023-04-25T07:27:04.500Z,1002.80
2023-04-25T07:28:04.498Z,1002.81
2023-04-25T07:29:04.487Z,1002.80
2023-04-25T07:30:04.475Z,1002.79
2023-04-25T07:31:04.473Z,1002.79
2023-04-25T07:32:04.500Z,1002.82
2023-04-25T07:33:04.500Z,1002.83
2023-04-25T07:34:04.442Z,1002.82
2023-04-25T07:35:04.638Z,1002.89
2023-04-25T07:36:04.422Z,1002.90
2023-04-25T07:37:04.432Z,1002.88
2023-04-25T07:38:04.401Z,1002.90
2023-04-25T07:39:04.391Z,1002.90
2023-04-25T07:40:04.414Z,1002.87
2023-04-25T07:41:04.380Z,1002.89
2023-04-25T07:42:04.386Z,1002.90
2023-04-25T07:43:04.354Z,1002.93
2023-04-25T07:44:04.349Z,1002.98
2023-04-25T07:45:04.348Z,1002.99
2023-04-25T07:46:04.357Z,1003.00
2023-04-25T07:47:04.625Z,1003.02
2023-04-25T07:48:04.332Z,1002.96
2023-04-25T07:49:04.304Z,1003.03
2023-04-25T07:50:04.293Z,1003.05
2023-04-25T07:51:04.284Z,1003.03
2023-04-25T07:52:04.289Z,1003.04
2023-04-25T07:53:04.279Z,1003.08
2023-04-25T07:54:04.274Z,1003.11
2023-04-25T07:55:04.251Z,1003.11
2023-04-25T07:56:04.242Z,1003.14
2023-04-25T07:57:04.227Z,1003.19
2023-04-25T07:58:04.227Z,1003.16
2023-04-25T07:59:04.218Z,1003.17
2023-04-25T08:00:04.209Z,1003.16
2023-04-25T08:01:04.204Z,1003.14
2023-04-25T08:02:04.203Z,1003.12
2023-04-25T08:03:04.332Z,1003.12
2023-04-25T08:04:04.320Z,1003.16
2023-04-25T08:05:04.272Z,1003.21
2023-04-25T08:06:07.019Z,1003.21
2023-04-25T08:07:04.147Z,1003.22
2023-04-25T08:08:04.139Z,1003.26
2023-04-25T08:09:04.130Z,1003.27
2023-04-25T08:10:04.122Z,1003.28
2023-04-25T08:11:04.119Z,1003.29
2023-04-25T08:12:04.114Z,1003.33
2023-04-25T08:13:04.111Z,1003.31
2023-04-25T08:14:04.114Z,1003.36
2023-04-25T08:15:04.086Z,1003.37
2023-04-25T08:16:04.118Z,1003.36
2023-04-25T08:17:04.068Z,1003.38
2023-04-25T08:18:04.088Z,1003.33
2023-04-25T08:19:04.050Z,1003.38
2023-04-25T08:20:04.079Z,1003.36
2023-04-25T08:21:04.033Z,1003.45
2023-04-25T08:22:04.034Z,1003.35
2023-04-25T08:23:04.019Z,1003.42
2023-04-25T08:24:04.017Z,1003.44
2023-04-25T08:25:04.037Z,1003.44
2023-04-25T08:26:03.991Z,1003.49
2023-04-25T08:27:03.979Z,1003.48
2023-04-25T08:28:03.987Z,1003.50
2023-04-25T08:29:03.968Z,1003.55
2023-04-25T08:30:03.959Z,1003.57
2023-04-25T08:31:03.971Z,1003.55
2023-04-25T08:32:03.983Z,1003.65
2023-04-25T08:33:03.973Z,1003.65
2023-04-25T08:34:03.927Z,1003.57
2023-04-25T08:35:03.934Z,1003.63
2023-04-25T08:36:03.914Z,1003.58
2023-04-25T08:37:03.955Z,1003.68
2023-04-25T08:38:03.957Z,1003.67
2023-04-25T08:39:03.888Z,1003.71
2023-04-25T08:40:03.879Z,1003.75
2023-04-25T08:41:03.882Z,1003.74
2023-04-25T08:42:03.864Z,1003.73
2023-04-25T08:43:03.857Z,1003.81
2023-04-25T08:44:03.857Z,1003.79
2023-04-25T08:45:06.625Z,1003.76
2023-04-25T08:46:03.830Z,1003.77
2023-04-25T08:47:03.926Z,1003.72
2023-04-25T08:48:03.899Z,1003.83
2023-04-25T08:49:03.805Z,1003.73
2023-04-25T08:50:03.795Z,1003.81
2023-04-25T08:51:03.789Z,1003.85
2023-04-25T08:52:03.784Z,1003.88
2023-04-25T08:53:03.944Z,1003.88
2023-04-25T08:54:09.025Z,1003.86
2023-04-25T08:55:03.773Z,1003.88
2023-04-25T08:56:03.748Z,1003.89
2023-04-25T08:57:03.749Z,1003.85
2023-04-25T08:58:03.728Z,1003.86
2023-04-25T08:59:03.730Z,1003.87
2023-04-25T09:00:03.724Z,1003.87
2023-04-25T09:01:03.739Z,1003.85
2023-04-25T09:02:03.915Z,1003.88
2023-04-25T09:03:03.823Z,1003.84
2023-04-25T09:04:03.812Z,1003.88
2023-04-25T09:05:03.688Z,1003.85
2023-04-25T09:06:03.670Z,1003.88
2023-04-25T09:07:03.689Z,1003.86
2023-04-25T09:08:03.674Z,1003.90
2023-04-25T09:09:03.646Z,1003.90
2023-04-25T09:10:03.637Z,1003.90
2023-04-25T09:11:03.628Z,1003.90
2023-04-25T09:12:03.621Z,1003.83
2023-04-25T09:13:03.613Z,1003.94
2023-04-25T09:14:03.603Z,1003.93
2023-04-25T09:15:03.600Z,1003.87
2023-04-25T09:16:03.648Z,1003.94
2023-04-25T09:17:03.787Z,1003.83
2023-04-25T09:18:03.665Z,1003.81
2023-04-25T09:19:03.571Z,1003.96
2023-04-25T09:20:03.558Z,1003.90
2023-04-25T09:21:09.814Z,1003.88
2023-04-25T09:22:03.541Z,1003.89
2023-04-25T09:23:03.536Z,1003.91
2023-04-25T09:24:03.535Z,1003.82
2023-04-25T09:25:03.520Z,1003.85
2023-04-25T09:26:03.520Z,1003.96
2023-04-25T09:27:03.505Z,1004.00
2023-04-25T09:28:03.500Z,1004.01
2023-04-25T09:29:03.504Z,1003.87
2023-04-25T09:30:03.481Z,1003.91
2023-04-25T09:31:03.480Z,1004.01
2023-04-25T09:32:03.529Z,1004.02
2023-04-25T09:33:03.495Z,1003.85
2023-04-25T09:34:03.650Z,1003.99
2023-04-25T09:35:03.444Z,1003.98
2023-04-25T09:36:03.436Z,1004.03
2023-04-25T09:37:03.435Z,1004.06
2023-04-25T09:38:03.469Z,1004.13
2023-04-25T09:39:03.430Z,1004.13
2023-04-25T09:40:03.427Z,1004.17
2023-04-25T09:41:03.403Z,1004.20
2023-04-25T09:42:03.396Z,1004.08
2023-04-25T09:43:03.388Z,1004.28
2023-04-25T09:44:03.961Z,1004.23
2023-04-25T09:45:03.397Z,1004.17
2023-04-25T09:46:03.373Z,1004.23
2023-04-25T09:47:03.355Z,1004.21
2023-04-25T09:48:03.424Z,1004.22
2023-04-25T09:49:03.341Z,1004.18
2023-04-25T09:50:03.333Z,1004.20
2023-04-25T09:51:03.331Z,1004.22
2023-04-25T09:52:03.984Z,1004.27
2023-04-25T09:53:03.315Z,1004.22
2023-04-25T09:54:03.314Z,1004.26
2023-04-25T09:55:03.314Z,1004.22
2023-04-25T09:56:03.291Z,1004.22
2023-04-25T09:57:03.285Z,1004.24
2023-04-25T09:58:03.293Z,1004.30
2023-04-25T09:59:03.276Z,1004.26
2023-04-25T10:00:03.268Z,1004.16
2023-04-25T10:01:03.365Z,1004.26
2023-04-25T10:02:03.257Z,1004.26
2023-04-25T10:03:03.334Z,1004.27
2023-04-25T10:04:03.830Z,1004.21
2023-04-25T10:05:03.275Z,1004.25
2023-04-25T10:06:03.233Z,1004.21
2023-04-25T10:07:03.210Z,1004.22
2023-04-25T10:08:03.206Z,1004.22
2023-04-25T10:09:03.200Z,1004.16
2023-04-25T10:10:03.202Z,1004.19
2023-04-25T10:11:03.211Z,1004.24
2023-04-25T10:12:03.175Z,1004.18
2023-04-25T10:13:03.171Z,1004.19
2023-04-25T10:14:03.183Z,1004.22
2023-04-25T10:15:03.157Z,1004.29
2023-04-25T10:16:03.189Z,1004.23
2023-04-25T10:17:03.151Z,1004.29
2023-04-25T10:18:03.168Z,1004.29
2023-04-25T10:19:03.130Z,1004.30
2023-04-25T10:20:03.124Z,1004.43
2023-04-25T10:21:03.128Z,1004.34
2023-04-25T10:22:03.111Z,1004.36
2023-04-25T10:23:03.100Z,1004.45
2023-04-25T10:24:03.093Z,1004.29
2023-04-25T10:25:03.082Z,1004.36
2023-04-25T10:26:03.080Z,1004.30
2023-04-25T10:27:03.169Z,1004.27
2023-04-25T10:28:03.087Z,1004.37
2023-04-25T10:29:03.085Z,1004.45
2023-04-25T10:30:03.067Z,1004.51
2023-04-25T10:31:03.070Z,1004.54
2023-04-25T10:32:03.088Z,1004.47
2023-04-25T10:33:03.045Z,1004.43
2023-04-25T10:34:03.049Z,1004.45
2023-04-25T10:35:03.014Z,1004.44
2023-04-25T10:36:03.007Z,1004.42
2023-04-25T10:37:03.002Z,1004.43
2023-04-25T10:38:02.994Z,1004.49
2023-04-25T10:39:02.997Z,1004.48
2023-04-25T10:40:02.984Z,1004.48
2023-04-25T10:41:02.972Z,1004.44
2023-04-25T10:42:02.966Z,1004.47
2023-04-25T10:43:02.953Z,1004.49
2023-04-25T10:44:02.958Z,1004.44
2023-04-25T10:45:02.988Z,1004.42
2023-04-25T10:46:02.955Z,1004.43
2023-04-25T10:47:03.045Z,1004.43
2023-04-25T10:48:03.022Z,1004.44
2023-04-25T10:49:02.922Z,1004.43
2023-04-25T10:50:02.904Z,1004.44
2023-04-25T10:51:02.903Z,1004.45
2023-04-25T10:52:02.899Z,1004.44
2023-04-25T10:53:02.896Z,1004.51
2023-04-25T10:54:02.885Z,1004.48
2023-04-25T10:55:02.873Z,1004.50
2023-04-25T10:56:02.867Z,1004.53
2023-04-25T10:57:02.864Z,1004.57
2023-04-25T10:58:02.874Z,1004.55
2023-04-25T10:59:02.853Z,1004.59
2023-04-25T11:00:02.845Z,1004.58
2023-04-25T11:01:02.934Z,1004.69
2023-04-25T11:02:02.873Z,1004.68
2023-04-25T11:03:02.925Z,1004.66
2023-04-25T11:04:03.032Z,1004.84
2023-04-25T11:05:02.811Z,1004.72
2023-04-25T11:06:02.795Z,1004.73
2023-04-25T11:07:06.378Z,1004.76
2023-04-25T11:08:07.605Z,1004.83
2023-04-25T11:09:02.783Z,1004.87
2023-04-25T11:10:02.776Z,1004.85
2023-04-25T11:11:02.759Z,1004.95
2023-04-25T11:12:02.763Z,1004.95
2023-04-25T11:13:02.762Z,1004.99
2023-04-25T11:14:02.739Z,1004.99
2023-04-25T11:15:02.727Z,1004.97
2023-04-25T11:16:12.191Z,1004.96
2023-04-25T11:17:02.760Z,1005.00
2023-04-25T11:18:02.772Z,1004.98
2023-04-25T11:19:02.696Z,1005.02
2023-04-25T11:20:02.689Z,1004.99
2023-04-25T11:21:02.682Z,1004.95
2023-04-25T11:22:02.672Z,1005.02
2023-04-25T11:24:02.657Z,1005.04
2023-04-25T11:25:02.660Z,1005.07
2023-04-25T11:26:02.645Z,1005.03
2023-04-25T11:27:02.643Z,1005.02
2023-04-25T11:28:02.625Z,1005.03
2023-04-25T11:29:02.620Z,1005.12
2023-04-25T11:30:02.612Z,1005.03
2023-04-25T11:31:02.605Z,1005.15
2023-04-25T11:32:02.724Z,1005.12
2023-04-25T11:33:02.648Z,1005.09
2023-04-25T11:34:02.652Z,1005.12
2023-04-25T11:35:02.611Z,1005.09
2023-04-25T11:36:02.572Z,1005.04
2023-04-25T11:37:02.574Z,1005.23
2023-04-25T11:38:02.547Z,1005.17
2023-04-25T11:39:02.551Z,1005.17
2023-04-25T11:40:02.541Z,1005.17
2023-04-25T11:41:02.748Z,1005.11
2023-04-25T11:42:14.017Z,1005.14
2023-04-25T11:43:02.520Z,1005.16
2023-04-25T11:44:02.508Z,1005.20
2023-04-25T11:45:02.502Z,1005.24
2023-04-25T11:46:02.568Z,1005.22
2023-04-25T11:47:02.479Z,1005.23
2023-04-25T11:48:02.588Z,1005.25
2023-04-25T11:49:02.475Z,1005.21
2023-04-25T11:50:02.498Z,1005.25
2023-04-25T11:51:02.462Z,1005.23
2023-04-25T11:52:02.454Z,1005.09
2023-04-25T11:53:02.444Z,1005.24
2023-04-25T11:54:02.433Z,1005.26
2023-04-25T11:55:02.426Z,1005.29
2023-04-25T11:56:02.422Z,1005.27
2023-04-25T11:57:02.409Z,1005.35
2023-04-25T11:58:02.401Z,1005.27
2023-04-25T11:59:02.441Z,1005.35
2023-04-25T12:00:02.385Z,1005.14
2023-04-25T12:01:02.381Z,1005.31
2023-04-25T12:02:02.370Z,1005.31
2023-04-25T12:03:02.459Z,1005.26
2023-04-25T12:04:02.584Z,1005.38
2023-04-25T12:05:12.066Z,1005.30
2023-04-25T12:06:02.621Z,1005.35